sensor_id;sensor_type;location;lat;lon;timestamp;P1;durP1;ratioP1;P2;durP2;ratioP2
5555;SDS011;2801;50.972;7.856;2023-05-01T00:00:55;5.75;;;4.10;;
5555;SDS011;2801;50.972;7.856;2023-05-01T00:03:22;6.00;;;4.57;;
5555;SDS011;2801;50.972;7.856;2023-05-01T00:05:49;7.80;;;4.68;;
5555;SDS011;2801;50.972;7.856;2023-05-01T00:08:16;5.72;;;4.03;;
5555;SDS011;2801;50.972;7.856;2023-05-01T00:10:43;8.27;;;4.85;;
5555;SDS011;2801;50.972;7.856;2023-05-01T00:13:12;5.57;;;4.47;;
5555;SDS011;2801;50.972;7.856;2023-05-01T00:15:39;9.80;;;5.07;;
5555;SDS011;2801;50.972;7.856;2023-05-01T00:18:07;6.45;;;4.78;;
5555;SDS011;2801;50.972;7.856;2023-05-01T00:20:34;7.93;;;4.70;;
5555;SDS011;2801;50.972;7.856;2023-05-01T00:23:01;5.72;;;4.38;;
5555;SDS011;2801;50.972;7.856;2023-05-01T00:25:28;6.97;;;4.50;;
5555;SDS011;2801;50.972;7.856;2023-05-01T00:27:55;7.20;;;4.78;;
5555;SDS011;2801;50.972;7.856;2023-05-01T00:30:23;8.23;;;5.30;;
5555;SDS011;2801;50.972;7.856;2023-05-01T00:32:52;6.05;;;4.30;;
5555;SDS011;2801;50.972;7.856;2023-05-01T00:35:20;6.85;;;4.60;;
5555;SDS011;2801;50.972;7.856;2023-05-01T00:37:46;6.47;;;4.60;;
5555;SDS011;2801;50.972;7.856;2023-05-01T00:40:14;6.05;;;4.70;;
5555;SDS011;2801;50.972;7.856;2023-05-01T00:42:41;6.13;;;4.70;;
5555;SDS011;2801;50.972;7.856;2023-05-01T00:45:08;5.93;;;4.60;;
5555;SDS011;2801;50.972;7.856;2023-05-01T00:47:36;5.97;;;4.38;;
5555;SDS011;2801;50.972;7.856;2023-05-01T00:50:03;6.10;;;4.30;;
5555;SDS011;2801;50.972;7.856;2023-05-01T00:52:31;6.68;;;4.40;;
5555;SDS011;2801;50.972;7.856;2023-05-01T00:54:59;6.25;;;4.55;;
5555;SDS011;2801;50.972;7.856;2023-05-01T00:57:26;8.57;;;5.22;;
5555;SDS011;2801;50.972;7.856;2023-05-01T00:59:53;6.10;;;4.40;;
5555;SDS011;2801;50.972;7.856;2023-05-01T01:02:20;5.97;;;4.68;;
5555;SDS011;2801;50.972;7.856;2023-05-01T01:04:47;10.02;;;4.38;;
5555;SDS011;2801;50.972;7.856;2023-05-01T01:13:31;8.38;;;4.30;;
5555;SDS011;2801;50.972;7.856;2023-05-01T01:18:51;7.88;;;4.57;;
5555;SDS011;2801;50.972;7.856;2023-05-01T01:21:36;6.20;;;4.45;;
5555;SDS011;2801;50.972;7.856;2023-05-01T01:27:12;5.78;;;4.03;;
5555;SDS011;2801;50.972;7.856;2023-05-01T01:36:14;6.40;;;4.57;;
5555;SDS011;2801;50.972;7.856;2023-05-01T01:38:58;6.43;;;4.57;;
5555;SDS011;2801;50.972;7.856;2023-05-01T01:41:37;6.20;;;4.05;;
5555;SDS011;2801;50.972;7.856;2023-05-01T01:46:57;6.85;;;4.15;;
5555;SDS011;2801;50.972;7.856;2023-05-01T01:49:30;8.10;;;4.10;;
5555;SDS011;2801;50.972;7.856;2023-05-01T01:52:00;6.15;;;4.25;;
5555;SDS011;2801;50.972;7.856;2023-05-01T01:54:37;4.78;;;3.30;;
5555;SDS011;2801;50.972;7.856;2023-05-01T01:57:12;4.57;;;2.92;;
5555;SDS011;2801;50.972;7.856;2023-05-01T01:59:42;5.18;;;3.70;;
5555;SDS011;2801;50.972;7.856;2023-05-01T02:02:12;7.28;;;4.72;;
5555;SDS011;2801;50.972;7.856;2023-05-01T02:04:43;6.25;;;4.07;;
5555;SDS011;2801;50.972;7.856;2023-05-01T02:07:11;7.78;;;4.45;;
5555;SDS011;2801;50.972;7.856;2023-05-01T02:09:41;8.73;;;4.03;;
5555;SDS011;2801;50.972;7.856;2023-05-01T02:12:11;6.28;;;3.70;;
5555;SDS011;2801;50.972;7.856;2023-05-01T02:14:40;7.05;;;3.60;;
5555;SDS011;2801;50.972;7.856;2023-05-01T02:17:09;6.90;;;3.83;;
5555;SDS011;2801;50.972;7.856;2023-05-01T02:19:38;6.90;;;3.90;;
5555;SDS011;2801;50.972;7.856;2023-05-01T02:22:06;5.95;;;4.20;;
5555;SDS011;2801;50.972;7.856;2023-05-01T02:24:36;7.22;;;4.40;;
5555;SDS011;2801;50.972;7.856;2023-05-01T02:27:10;6.55;;;4.25;;
5555;SDS011;2801;50.972;7.856;2023-05-01T02:29:50;5.38;;;3.30;;
5555;SDS011;2801;50.972;7.856;2023-05-01T02:32:19;7.63;;;4.00;;
5555;SDS011;2801;50.972;7.856;2023-05-01T02:34:46;5.15;;;2.95;;
5555;SDS011;2801;50.972;7.856;2023-05-01T02:37:12;5.68;;;2.67;;
5555;SDS011;2801;50.972;7.856;2023-05-01T02:39:40;4.97;;;2.90;;
5555;SDS011;2801;50.972;7.856;2023-05-01T02:42:07;6.45;;;2.63;;
5555;SDS011;2801;50.972;7.856;2023-05-01T02:44:38;6.00;;;2.90;;
5555;SDS011;2801;50.972;7.856;2023-05-01T02:47:10;5.03;;;2.80;;
5555;SDS011;2801;50.972;7.856;2023-05-01T02:49:43;9.15;;;3.05;;
5555;SDS011;2801;50.972;7.856;2023-05-01T02:52:14;4.97;;;2.67;;
5555;SDS011;2801;50.972;7.856;2023-05-01T02:54:43;4.43;;;2.60;;
5555;SDS011;2801;50.972;7.856;2023-05-01T02:57:11;4.60;;;2.53;;
5555;SDS011;2801;50.972;7.856;2023-05-01T02:59:38;4.72;;;2.40;;
5555;SDS011;2801;50.972;7.856;2023-05-01T03:02:06;4.55;;;2.55;;
5555;SDS011;2801;50.972;7.856;2023-05-01T03:04:33;3.67;;;2.30;;
5555;SDS011;2801;50.972;7.856;2023-05-01T03:07:00;5.22;;;2.83;;
5555;SDS011;2801;50.972;7.856;2023-05-01T03:09:27;4.00;;;2.42;;
5555;SDS011;2801;50.972;7.856;2023-05-01T03:11:54;5.95;;;3.00;;
5555;SDS011;2801;50.972;7.856;2023-05-01T03:14:21;4.97;;;2.60;;
5555;SDS011;2801;50.972;7.856;2023-05-01T03:16:48;6.30;;;2.33;;
5555;SDS011;2801;50.972;7.856;2023-05-01T03:19:15;4.35;;;2.33;;
5555;SDS011;2801;50.972;7.856;2023-05-01T03:21:42;4.60;;;2.28;;
5555;SDS011;2801;50.972;7.856;2023-05-01T03:24:08;3.15;;;2.30;;
5555;SDS011;2801;50.972;7.856;2023-05-01T03:26:36;2.28;;;2.00;;
5555;SDS011;2801;50.972;7.856;2023-05-01T03:29:03;4.43;;;2.30;;
5555;SDS011;2801;50.972;7.856;2023-05-01T03:31:30;5.75;;;2.30;;
5555;SDS011;2801;50.972;7.856;2023-05-01T03:33:57;3.80;;;2.40;;
5555;SDS011;2801;50.972;7.856;2023-05-01T03:36:24;3.47;;;2.28;;
5555;SDS011;2801;50.972;7.856;2023-05-01T03:38:52;4.28;;;2.20;;
5555;SDS011;2801;50.972;7.856;2023-05-01T03:41:19;5.50;;;2.75;;
5555;SDS011;2801;50.972;7.856;2023-05-01T03:43:46;5.13;;;2.47;;
5555;SDS011;2801;50.972;7.856;2023-05-01T03:46:13;3.60;;;2.05;;
5555;SDS011;2801;50.972;7.856;2023-05-01T03:48:40;3.17;;;2.40;;
5555;SDS011;2801;50.972;7.856;2023-05-01T03:51:07;3.08;;;2.20;;
5555;SDS011;2801;50.972;7.856;2023-05-01T03:53:34;4.70;;;2.40;;
5555;SDS011;2801;50.972;7.856;2023-05-01T03:56:02;2.80;;;2.15;;
5555;SDS011;2801;50.972;7.856;2023-05-01T03:58:29;4.53;;;2.42;;
5555;SDS011;2801;50.972;7.856;2023-05-01T04:00:56;4.18;;;2.28;;
5555;SDS011;2801;50.972;7.856;2023-05-01T04:03:25;2.67;;;1.83;;
5555;SDS011;2801;50.972;7.856;2023-05-01T04:05:54;4.63;;;2.10;;
5555;SDS011;2801;50.972;7.856;2023-05-01T04:08:21;5.68;;;2.33;;
5555;SDS011;2801;50.972;7.856;2023-05-01T04:10:48;6.25;;;2.00;;
5555;SDS011;2801;50.972;7.856;2023-05-01T04:13:15;2.67;;;2.00;;
5555;SDS011;2801;50.972;7.856;2023-05-01T04:15:45;5.60;;;2.30;;
5555;SDS011;2801;50.972;7.856;2023-05-01T04:18:12;2.78;;;2.08;;
5555;SDS011;2801;50.972;7.856;2023-05-01T04:20:39;4.50;;;2.10;;
5555;SDS011;2801;50.972;7.856;2023-05-01T04:23:06;2.40;;;1.85;;
5555;SDS011;2801;50.972;7.856;2023-05-01T04:25:35;7.32;;;2.10;;
5555;SDS011;2801;50.972;7.856;2023-05-01T04:28:02;5.78;;;2.53;;
5555;SDS011;2801;50.972;7.856;2023-05-01T04:30:30;2.75;;;2.10;;
5555;SDS011;2801;50.972;7.856;2023-05-01T04:32:57;5.40;;;2.50;;
5555;SDS011;2801;50.972;7.856;2023-05-01T04:35:24;6.05;;;2.20;;
5555;SDS011;2801;50.972;7.856;2023-05-01T04:37:51;5.63;;;2.55;;
5555;SDS011;2801;50.972;7.856;2023-05-01T04:40:18;6.60;;;2.40;;
5555;SDS011;2801;50.972;7.856;2023-05-01T04:42:45;4.13;;;2.40;;
5555;SDS011;2801;50.972;7.856;2023-05-01T04:45:12;3.40;;;2.42;;
5555;SDS011;2801;50.972;7.856;2023-05-01T04:47:39;4.00;;;2.35;;
5555;SDS011;2801;50.972;7.856;2023-05-01T04:50:06;4.47;;;2.30;;
5555;SDS011;2801;50.972;7.856;2023-05-01T04:52:33;5.00;;;2.50;;
5555;SDS011;2801;50.972;7.856;2023-05-01T04:55:01;3.50;;;1.98;;
5555;SDS011;2801;50.972;7.856;2023-05-01T04:57:29;4.82;;;2.40;;
5555;SDS011;2801;50.972;7.856;2023-05-01T04:59:55;5.95;;;2.50;;
5555;SDS011;2801;50.972;7.856;2023-05-01T05:02:23;3.45;;;2.13;;
5555;SDS011;2801;50.972;7.856;2023-05-01T05:04:51;4.90;;;2.65;;
5555;SDS011;2801;50.972;7.856;2023-05-01T05:07:19;3.85;;;2.45;;
5555;SDS011;2801;50.972;7.856;2023-05-01T05:09:46;4.82;;;2.65;;
5555;SDS011;2801;50.972;7.856;2023-05-01T05:12:13;5.40;;;2.20;;
5555;SDS011;2801;50.972;7.856;2023-05-01T05:14:40;5.25;;;2.55;;
5555;SDS011;2801;50.972;7.856;2023-05-01T05:17:08;3.47;;;1.90;;
5555;SDS011;2801;50.972;7.856;2023-05-01T05:19:35;3.17;;;2.47;;
5555;SDS011;2801;50.972;7.856;2023-05-01T05:22:02;3.60;;;2.40;;
5555;SDS011;2801;50.972;7.856;2023-05-01T05:24:29;5.50;;;2.30;;
5555;SDS011;2801;50.972;7.856;2023-05-01T05:26:57;4.13;;;2.80;;
5555;SDS011;2801;50.972;7.856;2023-05-01T05:29:24;4.45;;;2.67;;
5555;SDS011;2801;50.972;7.856;2023-05-01T05:31:51;3.55;;;2.50;;
5555;SDS011;2801;50.972;7.856;2023-05-01T05:34:18;3.90;;;2.10;;
5555;SDS011;2801;50.972;7.856;2023-05-01T05:36:45;2.55;;;1.75;;
5555;SDS011;2801;50.972;7.856;2023-05-01T05:39:12;3.17;;;2.20;;
5555;SDS011;2801;50.972;7.856;2023-05-01T05:41:39;3.38;;;1.90;;
5555;SDS011;2801;50.972;7.856;2023-05-01T05:44:06;3.35;;;2.15;;
5555;SDS011;2801;50.972;7.856;2023-05-01T05:46:33;4.95;;;1.88;;
5555;SDS011;2801;50.972;7.856;2023-05-01T05:49:00;2.40;;;2.03;;
5555;SDS011;2801;50.972;7.856;2023-05-01T05:51:27;5.47;;;2.05;;
5555;SDS011;2801;50.972;7.856;2023-05-01T05:53:54;4.55;;;2.10;;
5555;SDS011;2801;50.972;7.856;2023-05-01T05:56:21;3.55;;;1.83;;
5555;SDS011;2801;50.972;7.856;2023-05-01T05:58:49;4.70;;;1.92;;
5555;SDS011;2801;50.972;7.856;2023-05-01T06:01:16;3.38;;;2.00;;
5555;SDS011;2801;50.972;7.856;2023-05-01T06:03:43;5.90;;;2.25;;
5555;SDS011;2801;50.972;7.856;2023-05-01T06:06:10;4.03;;;2.00;;
5555;SDS011;2801;50.972;7.856;2023-05-01T06:08:37;4.80;;;1.90;;
5555;SDS011;2801;50.972;7.856;2023-05-01T06:11:04;3.83;;;2.08;;
5555;SDS011;2801;50.972;7.856;2023-05-01T06:13:33;2.80;;;1.90;;
5555;SDS011;2801;50.972;7.856;2023-05-01T06:16:00;5.82;;;2.10;;
5555;SDS011;2801;50.972;7.856;2023-05-01T06:18:27;7.20;;;1.77;;
5555;SDS011;2801;50.972;7.856;2023-05-01T06:20:55;3.40;;;1.85;;
5555;SDS011;2801;50.972;7.856;2023-05-01T06:23:22;4.70;;;2.30;;
5555;SDS011;2801;50.972;7.856;2023-05-01T06:25:49;3.25;;;1.92;;
5555;SDS011;2801;50.972;7.856;2023-05-01T06:28:16;2.83;;;2.00;;
5555;SDS011;2801;50.972;7.856;2023-05-01T06:30:43;3.25;;;1.80;;
5555;SDS011;2801;50.972;7.856;2023-05-01T06:33:10;4.93;;;2.03;;
5555;SDS011;2801;50.972;7.856;2023-05-01T06:35:38;3.95;;;2.33;;
5555;SDS011;2801;50.972;7.856;2023-05-01T06:38:05;3.35;;;2.22;;
5555;SDS011;2801;50.972;7.856;2023-05-01T06:40:32;4.15;;;2.15;;
5555;SDS011;2801;50.972;7.856;2023-05-01T06:43:03;4.43;;;2.30;;
5555;SDS011;2801;50.972;7.856;2023-05-01T06:45:30;3.17;;;1.98;;
5555;SDS011;2801;50.972;7.856;2023-05-01T06:47:57;5.95;;;2.53;;
5555;SDS011;2801;50.972;7.856;2023-05-01T06:50:24;6.28;;;2.03;;
5555;SDS011;2801;50.972;7.856;2023-05-01T06:52:51;4.20;;;2.03;;
5555;SDS011;2801;50.972;7.856;2023-05-01T06:55:18;4.38;;;2.30;;
5555;SDS011;2801;50.972;7.856;2023-05-01T06:57:45;4.30;;;2.45;;
5555;SDS011;2801;50.972;7.856;2023-05-01T07:00:12;4.57;;;2.10;;
5555;SDS011;2801;50.972;7.856;2023-05-01T07:02:41;3.95;;;2.35;;
5555;SDS011;2801;50.972;7.856;2023-05-01T07:05:08;3.40;;;2.63;;
5555;SDS011;2801;50.972;7.856;2023-05-01T07:07:34;6.97;;;2.45;;
5555;SDS011;2801;50.972;7.856;2023-05-01T07:10:07;5.78;;;2.70;;
5555;SDS011;2801;50.972;7.856;2023-05-01T07:12:34;7.07;;;2.60;;
5555;SDS011;2801;50.972;7.856;2023-05-01T07:15:02;6.85;;;3.00;;
5555;SDS011;2801;50.972;7.856;2023-05-01T07:17:29;4.60;;;2.65;;
5555;SDS011;2801;50.972;7.856;2023-05-01T07:19:56;3.65;;;2.40;;
5555;SDS011;2801;50.972;7.856;2023-05-01T07:22:24;5.72;;;2.95;;
5555;SDS011;2801;50.972;7.856;2023-05-01T07:24:50;7.25;;;2.53;;
5555;SDS011;2801;50.972;7.856;2023-05-01T07:27:17;7.57;;;2.83;;
5555;SDS011;2801;50.972;7.856;2023-05-01T07:29:44;3.38;;;2.50;;
5555;SDS011;2801;50.972;7.856;2023-05-01T07:32:11;5.00;;;2.75;;
5555;SDS011;2801;50.972;7.856;2023-05-01T07:34:39;7.13;;;3.10;;
5555;SDS011;2801;50.972;7.856;2023-05-01T07:37:06;6.13;;;2.72;;
5555;SDS011;2801;50.972;7.856;2023-05-01T07:39:33;5.30;;;2.70;;
5555;SDS011;2801;50.972;7.856;2023-05-01T07:42:00;5.57;;;2.50;;
5555;SDS011;2801;50.972;7.856;2023-05-01T07:44:27;6.10;;;2.50;;
5555;SDS011;2801;50.972;7.856;2023-05-01T07:46:54;5.75;;;2.40;;
5555;SDS011;2801;50.972;7.856;2023-05-01T07:49:20;4.13;;;2.50;;
5555;SDS011;2801;50.972;7.856;2023-05-01T07:51:47;4.70;;;3.00;;
5555;SDS011;2801;50.972;7.856;2023-05-01T07:54:15;3.83;;;2.33;;
5555;SDS011;2801;50.972;7.856;2023-05-01T07:56:47;5.30;;;2.80;;
5555;SDS011;2801;50.972;7.856;2023-05-01T07:59:15;5.95;;;3.00;;
5555;SDS011;2801;50.972;7.856;2023-05-01T08:01:41;4.30;;;2.50;;
5555;SDS011;2801;50.972;7.856;2023-05-01T08:04:08;5.47;;;2.90;;
5555;SDS011;2801;50.972;7.856;2023-05-01T08:06:36;5.05;;;2.92;;
5555;SDS011;2801;50.972;7.856;2023-05-01T08:09:03;6.38;;;2.67;;
5555;SDS011;2801;50.972;7.856;2023-05-01T08:11:30;5.88;;;2.58;;
5555;SDS011;2801;50.972;7.856;2023-05-01T08:13:58;4.72;;;2.28;;
5555;SDS011;2801;50.972;7.856;2023-05-01T08:16:26;3.78;;;2.55;;
5555;SDS011;2801;50.972;7.856;2023-05-01T08:18:53;4.93;;;2.45;;
5555;SDS011;2801;50.972;7.856;2023-05-01T08:21:19;5.13;;;2.88;;
5555;SDS011;2801;50.972;7.856;2023-05-01T08:23:46;4.03;;;3.00;;
5555;SDS011;2801;50.972;7.856;2023-05-01T08:26:13;3.92;;;2.70;;
5555;SDS011;2801;50.972;7.856;2023-05-01T08:28:41;5.03;;;2.58;;
5555;SDS011;2801;50.972;7.856;2023-05-01T08:31:08;4.95;;;2.92;;
5555;SDS011;2801;50.972;7.856;2023-05-01T08:33:35;5.72;;;2.70;;
5555;SDS011;2801;50.972;7.856;2023-05-01T08:36:02;3.75;;;2.53;;
5555;SDS011;2801;50.972;7.856;2023-05-01T08:38:29;3.33;;;2.58;;
5555;SDS011;2801;50.972;7.856;2023-05-01T08:40:56;3.97;;;2.67;;
5555;SDS011;2801;50.972;7.856;2023-05-01T08:43:24;5.90;;;2.63;;
5555;SDS011;2801;50.972;7.856;2023-05-01T08:45:54;5.50;;;2.63;;
5555;SDS011;2801;50.972;7.856;2023-05-01T08:48:24;4.25;;;2.85;;
5555;SDS011;2801;50.972;7.856;2023-05-01T08:50:52;4.93;;;2.80;;
5555;SDS011;2801;50.972;7.856;2023-05-01T08:53:25;4.85;;;2.67;;
5555;SDS011;2801;50.972;7.856;2023-05-01T08:55:52;3.50;;;2.70;;
5555;SDS011;2801;50.972;7.856;2023-05-01T08:58:24;4.38;;;2.70;;
5555;SDS011;2801;50.972;7.856;2023-05-01T09:00:54;5.45;;;2.50;;
5555;SDS011;2801;50.972;7.856;2023-05-01T09:03:23;5.07;;;2.78;;
5555;SDS011;2801;50.972;7.856;2023-05-01T09:05:53;4.88;;;2.85;;
5555;SDS011;2801;50.972;7.856;2023-05-01T09:08:21;4.55;;;3.20;;
5555;SDS011;2801;50.972;7.856;2023-05-01T09:10:48;4.50;;;3.88;;
5555;SDS011;2801;50.972;7.856;2023-05-01T09:13:19;4.18;;;2.72;;
5555;SDS011;2801;50.972;7.856;2023-05-01T09:15:46;4.20;;;2.67;;
5555;SDS011;2801;50.972;7.856;2023-05-01T09:18:13;4.63;;;2.88;;
5555;SDS011;2801;50.972;7.856;2023-05-01T09:20:40;5.43;;;2.92;;
5555;SDS011;2801;50.972;7.856;2023-05-01T09:23:07;3.70;;;3.15;;
5555;SDS011;2801;50.972;7.856;2023-05-01T09:25:36;6.28;;;2.65;;
5555;SDS011;2801;50.972;7.856;2023-05-01T09:28:04;5.05;;;2.75;;
5555;SDS011;2801;50.972;7.856;2023-05-01T09:31:20;5.07;;;2.58;;
5555;SDS011;2801;50.972;7.856;2023-05-01T09:33:56;5.43;;;2.50;;
5555;SDS011;2801;50.972;7.856;2023-05-01T09:36:41;3.30;;;2.60;;
5555;SDS011;2801;50.972;7.856;2023-05-01T09:39:12;4.53;;;2.90;;
5555;SDS011;2801;50.972;7.856;2023-05-01T09:41:49;3.95;;;2.60;;
5555;SDS011;2801;50.972;7.856;2023-05-01T09:44:17;5.18;;;2.65;;
5555;SDS011;2801;50.972;7.856;2023-05-01T09:46:44;4.57;;;2.70;;
5555;SDS011;2801;50.972;7.856;2023-05-01T09:49:12;23.70;;;3.15;;
5555;SDS011;2801;50.972;7.856;2023-05-01T09:51:39;5.93;;;2.90;;
5555;SDS011;2801;50.972;7.856;2023-05-01T09:54:16;4.63;;;2.72;;
5555;SDS011;2801;50.972;7.856;2023-05-01T09:56:48;3.88;;;2.58;;
5555;SDS011;2801;50.972;7.856;2023-05-01T09:59:16;4.20;;;2.65;;
5555;SDS011;2801;50.972;7.856;2023-05-01T10:01:46;3.75;;;2.60;;
5555;SDS011;2801;50.972;7.856;2023-05-01T10:04:15;4.28;;;2.55;;
5555;SDS011;2801;50.972;7.856;2023-05-01T10:06:42;4.68;;;2.50;;
5555;SDS011;2801;50.972;7.856;2023-05-01T10:09:09;4.10;;;2.58;;
5555;SDS011;2801;50.972;7.856;2023-05-01T10:11:49;3.55;;;2.70;;
5555;SDS011;2801;50.972;7.856;2023-05-01T10:14:18;3.50;;;2.50;;
5555;SDS011;2801;50.972;7.856;2023-05-01T10:16:47;3.33;;;2.70;;
5555;SDS011;2801;50.972;7.856;2023-05-01T10:19:17;4.63;;;2.40;;
5555;SDS011;2801;50.972;7.856;2023-05-01T10:21:45;4.25;;;2.67;;
5555;SDS011;2801;50.972;7.856;2023-05-01T10:24:12;4.47;;;2.70;;
5555;SDS011;2801;50.972;7.856;2023-05-01T10:26:42;3.58;;;2.80;;
5555;SDS011;2801;50.972;7.856;2023-05-01T10:29:10;4.13;;;2.70;;
5555;SDS011;2801;50.972;7.856;2023-05-01T10:31:38;3.67;;;2.30;;
5555;SDS011;2801;50.972;7.856;2023-05-01T10:34:07;3.70;;;2.33;;
5555;SDS011;2801;50.972;7.856;2023-05-01T10:36:44;7.28;;;2.90;;
5555;SDS011;2801;50.972;7.856;2023-05-01T10:39:32;4.82;;;2.78;;
5555;SDS011;2801;50.972;7.856;2023-05-01T10:44:30;2.92;;;2.65;;
5555;SDS011;2801;50.972;7.856;2023-05-01T10:47:11;3.20;;;2.25;;
5555;SDS011;2801;50.972;7.856;2023-05-01T10:50:05;5.05;;;2.67;;
5555;SDS011;2801;50.972;7.856;2023-05-01T10:58:11;3.10;;;2.40;;
5555;SDS011;2801;50.972;7.856;2023-05-01T11:03:54;3.80;;;2.95;;
5555;SDS011;2801;50.972;7.856;2023-05-01T11:06:23;3.78;;;2.53;;
5555;SDS011;2801;50.972;7.856;2023-05-01T11:08:51;4.00;;;2.47;;
5555;SDS011;2801;50.972;7.856;2023-05-01T11:21:46;2.80;;;2.40;;
5555;SDS011;2801;50.972;7.856;2023-05-01T11:24:14;3.25;;;2.85;;
5555;SDS011;2801;50.972;7.856;2023-05-01T11:26:43;3.70;;;2.60;;
5555;SDS011;2801;50.972;7.856;2023-05-01T11:29:11;5.32;;;2.47;;
5555;SDS011;2801;50.972;7.856;2023-05-01T11:31:38;3.08;;;2.60;;
5555;SDS011;2801;50.972;7.856;2023-05-01T11:34:05;4.47;;;2.88;;
5555;SDS011;2801;50.972;7.856;2023-05-01T11:36:53;5.22;;;2.72;;
5555;SDS011;2801;50.972;7.856;2023-05-01T11:39:21;3.58;;;2.70;;
5555;SDS011;2801;50.972;7.856;2023-05-01T11:41:48;3.20;;;2.60;;
5555;SDS011;2801;50.972;7.856;2023-05-01T11:44:16;5.43;;;2.55;;
5555;SDS011;2801;50.972;7.856;2023-05-01T11:46:44;3.05;;;2.63;;
5555;SDS011;2801;50.972;7.856;2023-05-01T11:49:11;4.88;;;2.75;;
5555;SDS011;2801;50.972;7.856;2023-05-01T11:51:38;3.88;;;2.50;;
5555;SDS011;2801;50.972;7.856;2023-05-01T11:54:05;2.83;;;2.20;;
5555;SDS011;2801;50.972;7.856;2023-05-01T11:56:40;3.50;;;2.28;;
5555;SDS011;2801;50.972;7.856;2023-05-01T11:59:17;2.45;;;2.20;;
5555;SDS011;2801;50.972;7.856;2023-05-01T12:01:44;3.03;;;2.72;;
5555;SDS011;2801;50.972;7.856;2023-05-01T12:04:12;3.53;;;2.70;;
5555;SDS011;2801;50.972;7.856;2023-05-01T12:06:57;3.03;;;2.17;;
5555;SDS011;2801;50.972;7.856;2023-05-01T12:09:25;4.05;;;2.60;;
5555;SDS011;2801;50.972;7.856;2023-05-01T12:11:54;2.97;;;2.45;;
5555;SDS011;2801;50.972;7.856;2023-05-01T12:14:23;2.72;;;2.10;;
5555;SDS011;2801;50.972;7.856;2023-05-01T12:16:50;3.40;;;2.63;;
5555;SDS011;2801;50.972;7.856;2023-05-01T12:19:17;2.80;;;2.45;;
5555;SDS011;2801;50.972;7.856;2023-05-01T12:21:46;3.97;;;2.13;;
5555;SDS011;2801;50.972;7.856;2023-05-01T12:24:14;3.92;;;2.20;;
5555;SDS011;2801;50.972;7.856;2023-05-01T12:26:44;4.35;;;2.60;;
5555;SDS011;2801;50.972;7.856;2023-05-01T12:29:11;3.40;;;2.50;;
5555;SDS011;2801;50.972;7.856;2023-05-01T12:31:48;3.75;;;2.30;;
5555;SDS011;2801;50.972;7.856;2023-05-01T12:34:15;4.28;;;2.35;;
5555;SDS011;2801;50.972;7.856;2023-05-01T12:36:51;2.40;;;2.20;;
5555;SDS011;2801;50.972;7.856;2023-05-01T12:39:20;5.82;;;2.42;;
5555;SDS011;2801;50.972;7.856;2023-05-01T12:41:49;2.67;;;2.15;;
5555;SDS011;2801;50.972;7.856;2023-05-01T12:44:21;2.13;;;1.83;;
5555;SDS011;2801;50.972;7.856;2023-05-01T12:46:59;4.15;;;2.20;;
5555;SDS011;2801;50.972;7.856;2023-05-01T12:49:29;2.65;;;2.20;;
5555;SDS011;2801;50.972;7.856;2023-05-01T12:52:00;2.47;;;2.28;;
5555;SDS011;2801;50.972;7.856;2023-05-01T12:54:30;2.63;;;2.10;;
5555;SDS011;2801;50.972;7.856;2023-05-01T12:57:15;3.40;;;1.95;;
5555;SDS011;2801;50.972;7.856;2023-05-01T12:59:43;2.55;;;2.20;;
5555;SDS011;2801;50.972;7.856;2023-05-01T13:02:12;3.65;;;2.10;;
5555;SDS011;2801;50.972;7.856;2023-05-01T13:04:42;4.47;;;1.83;;
5555;SDS011;2801;50.972;7.856;2023-05-01T13:07:12;2.08;;;1.88;;
5555;SDS011;2801;50.972;7.856;2023-05-01T13:09:51;2.65;;;1.70;;
5555;SDS011;2801;50.972;7.856;2023-05-01T13:12:21;3.85;;;1.85;;
5555;SDS011;2801;50.972;7.856;2023-05-01T13:14:49;2.35;;;1.80;;
5555;SDS011;2801;50.972;7.856;2023-05-01T13:17:27;4.30;;;1.80;;
5555;SDS011;2801;50.972;7.856;2023-05-01T13:20:03;2.72;;;1.70;;
5555;SDS011;2801;50.972;7.856;2023-05-01T13:22:34;4.32;;;1.98;;
5555;SDS011;2801;50.972;7.856;2023-05-01T13:25:03;2.25;;;1.95;;
5555;SDS011;2801;50.972;7.856;2023-05-01T13:27:49;2.72;;;1.90;;
5555;SDS011;2801;50.972;7.856;2023-05-01T13:30:19;2.35;;;1.67;;
5555;SDS011;2801;50.972;7.856;2023-05-01T13:32:59;3.75;;;1.63;;
5555;SDS011;2801;50.972;7.856;2023-05-01T13:35:27;1.60;;;1.30;;
5555;SDS011;2801;50.972;7.856;2023-05-01T13:37:56;2.60;;;1.48;;
5555;SDS011;2801;50.972;7.856;2023-05-01T13:40:24;1.70;;;1.60;;
5555;SDS011;2801;50.972;7.856;2023-05-01T13:42:53;2.97;;;1.77;;
5555;SDS011;2801;50.972;7.856;2023-05-01T13:45:19;2.08;;;1.50;;
5555;SDS011;2801;50.972;7.856;2023-05-01T13:47:48;2.00;;;1.50;;
5555;SDS011;2801;50.972;7.856;2023-05-01T13:50:17;1.40;;;1.23;;
5555;SDS011;2801;50.972;7.856;2023-05-01T13:52:44;1.98;;;1.65;;
5555;SDS011;2801;50.972;7.856;2023-05-01T13:55:11;1.50;;;1.20;;
5555;SDS011;2801;50.972;7.856;2023-05-01T13:57:39;2.45;;;1.67;;
5555;SDS011;2801;50.972;7.856;2023-05-01T14:00:08;2.47;;;1.52;;
5555;SDS011;2801;50.972;7.856;2023-05-01T14:02:46;2.47;;;1.40;;
5555;SDS011;2801;50.972;7.856;2023-05-01T14:05:15;1.50;;;1.30;;
5555;SDS011;2801;50.972;7.856;2023-05-01T14:07:52;2.38;;;1.58;;
5555;SDS011;2801;50.972;7.856;2023-05-01T14:10:22;2.28;;;1.33;;
5555;SDS011;2801;50.972;7.856;2023-05-01T14:12:58;2.60;;;1.60;;
5555;SDS011;2801;50.972;7.856;2023-05-01T14:15:26;2.20;;;1.48;;
5555;SDS011;2801;50.972;7.856;2023-05-01T14:17:54;2.90;;;1.80;;
5555;SDS011;2801;50.972;7.856;2023-05-01T14:20:23;1.50;;;1.40;;
5555;SDS011;2801;50.972;7.856;2023-05-01T14:22:51;1.73;;;1.60;;
5555;SDS011;2801;50.972;7.856;2023-05-01T14:27:58;1.40;;;1.30;;
5555;SDS011;2801;50.972;7.856;2023-05-01T14:30:30;1.80;;;1.52;;
5555;SDS011;2801;50.972;7.856;2023-05-01T14:33:00;2.55;;;1.67;;
5555;SDS011;2801;50.972;7.856;2023-05-01T14:35:29;2.95;;;1.77;;
5555;SDS011;2801;50.972;7.856;2023-05-01T14:38:01;2.75;;;1.70;;
5555;SDS011;2801;50.972;7.856;2023-05-01T14:40:39;2.67;;;1.60;;
5555;SDS011;2801;50.972;7.856;2023-05-01T14:43:08;1.80;;;1.50;;
5555;SDS011;2801;50.972;7.856;2023-05-01T14:45:41;1.70;;;1.48;;
5555;SDS011;2801;50.972;7.856;2023-05-01T14:48:33;3.22;;;1.65;;
5555;SDS011;2801;50.972;7.856;2023-05-01T14:51:08;2.95;;;1.50;;
5555;SDS011;2801;50.972;7.856;2023-05-01T14:53:40;1.88;;;1.50;;
5555;SDS011;2801;50.972;7.856;2023-05-01T14:56:08;2.90;;;1.67;;
5555;SDS011;2801;50.972;7.856;2023-05-01T14:58:37;2.70;;;1.70;;
5555;SDS011;2801;50.972;7.856;2023-05-01T15:01:04;2.22;;;1.40;;
5555;SDS011;2801;50.972;7.856;2023-05-01T15:03:32;1.75;;;1.50;;
5555;SDS011;2801;50.972;7.856;2023-05-01T15:06:06;3.40;;;1.70;;
5555;SDS011;2801;50.972;7.856;2023-05-01T15:08:34;2.10;;;1.50;;
5555;SDS011;2801;50.972;7.856;2023-05-01T15:11:03;1.73;;;1.60;;
5555;SDS011;2801;50.972;7.856;2023-05-01T15:13:30;3.80;;;1.65;;
5555;SDS011;2801;50.972;7.856;2023-05-01T15:15:57;1.67;;;1.52;;
5555;SDS011;2801;50.972;7.856;2023-05-01T15:18:24;2.30;;;1.80;;
5555;SDS011;2801;50.972;7.856;2023-05-01T15:20:51;1.95;;;1.50;;
5555;SDS011;2801;50.972;7.856;2023-05-01T15:23:18;1.95;;;1.45;;
5555;SDS011;2801;50.972;7.856;2023-05-01T15:25:45;2.55;;;1.40;;
5555;SDS011;2801;50.972;7.856;2023-05-01T15:28:15;2.00;;;1.50;;
5555;SDS011;2801;50.972;7.856;2023-05-01T15:30:43;1.75;;;1.65;;
5555;SDS011;2801;50.972;7.856;2023-05-01T15:33:12;2.63;;;2.10;;
5555;SDS011;2801;50.972;7.856;2023-05-01T15:35:44;2.85;;;1.70;;
5555;SDS011;2801;50.972;7.856;2023-05-01T15:38:12;1.58;;;1.40;;
5555;SDS011;2801;50.972;7.856;2023-05-01T15:40:41;3.65;;;1.67;;
5555;SDS011;2801;50.972;7.856;2023-05-01T15:43:08;2.10;;;1.48;;
5555;SDS011;2801;50.972;7.856;2023-05-01T15:45:35;2.13;;;1.77;;
5555;SDS011;2801;50.972;7.856;2023-05-01T15:48:08;2.17;;;1.30;;
5555;SDS011;2801;50.972;7.856;2023-05-01T15:50:37;1.95;;;1.50;;
5555;SDS011;2801;50.972;7.856;2023-05-01T15:53:04;1.55;;;1.45;;
5555;SDS011;2801;50.972;7.856;2023-05-01T15:55:30;1.80;;;1.60;;
5555;SDS011;2801;50.972;7.856;2023-05-01T15:57:59;1.77;;;1.42;;
5555;SDS011;2801;50.972;7.856;2023-05-01T16:00:27;2.97;;;1.52;;
5555;SDS011;2801;50.972;7.856;2023-05-01T16:02:54;4.15;;;1.60;;
5555;SDS011;2801;50.972;7.856;2023-05-01T16:05:21;1.80;;;1.50;;
5555;SDS011;2801;50.972;7.856;2023-05-01T16:07:51;2.15;;;1.67;;
5555;SDS011;2801;50.972;7.856;2023-05-01T16:10:21;2.20;;;1.63;;
5555;SDS011;2801;50.972;7.856;2023-05-01T16:12:48;2.80;;;1.85;;